sensor_id;sensor_type;location;lat;lon;timestamp;P1;durP1;ratioP1;P2;durP2;ratioP2
48629;SDS011;34426;52.180;4.462;2022-10-15T00:00:20;43.83;;;28.60;;
48629;SDS011;34426;52.180;4.462;2022-10-15T00:02:46;49.90;;;28.80;;
48629;SDS011;34426;52.180;4.462;2022-10-15T00:05:12;41.35;;;27.48;;
48629;SDS011;34426;52.180;4.462;2022-10-15T00:07:38;44.03;;;26.98;;
48629;SDS011;34426;52.180;4.462;2022-10-15T00:10:04;37.92;;;27.33;;
48629;SDS011;34426;52.180;4.462;2022-10-15T00:12:30;43.05;;;26.52;;
48629;SDS011;34426;52.180;4.462;2022-10-15T00:14:58;43.78;;;26.85;;
48629;SDS011;34426;52.180;4.462;2022-10-15T00:17:25;41.58;;;28.40;;
48629;SDS011;34426;52.180;4.462;2022-10-15T00:19:51;36.20;;;27.08;;
48629;SDS011;34426;52.180;4.462;2022-10-15T00:22:17;45.33;;;27.30;;
48629;SDS011;34426;52.180;4.462;2022-10-15T00:24:43;42.15;;;28.60;;
48629;SDS011;34426;52.180;4.462;2022-10-15T00:27:10;44.03;;;27.80;;
48629;SDS011;34426;52.180;4.462;2022-10-15T00:29:36;40.92;;;27.38;;
48629;SDS011;34426;52.180;4.462;2022-10-15T00:32:04;37.42;;;27.02;;
48629;SDS011;34426;52.180;4.462;2022-10-15T00:34:31;37.42;;;27.75;;
48629;SDS011;34426;52.180;4.462;2022-10-15T00:36:57;39.20;;;27.83;;
48629;SDS011;34426;52.180;4.462;2022-10-15T00:39:23;47.28;;;28.23;;
48629;SDS011;34426;52.180;4.462;2022-10-15T00:41:49;42.05;;;28.10;;
48629;SDS011;34426;52.180;4.462;2022-10-15T00:47:01;39.22;;;28.25;;
48629;SDS011;34426;52.180;4.462;2022-10-15T00:49:30;43.78;;;27.30;;
48629;SDS011;34426;52.180;4.462;2022-10-15T00:51:58;42.25;;;26.70;;
48629;SDS011;34426;52.180;4.462;2022-10-15T00:54:25;42.67;;;27.45;;
48629;SDS011;34426;52.180;4.462;2022-10-15T00:56:52;39.83;;;27.83;;
48629;SDS011;34426;52.180;4.462;2022-10-15T00:59:19;43.70;;;26.27;;
48629;SDS011;34426;52.180;4.462;2022-10-15T01:01:47;35.65;;;26.10;;
48629;SDS011;34426;52.180;4.462;2022-10-15T01:04:13;44.30;;;28.10;;
48629;SDS011;34426;52.180;4.462;2022-10-15T01:06:42;35.97;;;24.83;;
48629;SDS011;34426;52.180;4.462;2022-10-15T01:09:08;38.30;;;23.80;;
48629;SDS011;34426;52.180;4.462;2022-10-15T01:11:36;35.83;;;25.20;;
48629;SDS011;34426;52.180;4.462;2022-10-15T01:14:07;36.55;;;24.88;;
48629;SDS011;34426;52.180;4.462;2022-10-15T01:16:38;33.55;;;25.13;;
48629;SDS011;34426;52.180;4.462;2022-10-15T01:19:08;33.67;;;24.70;;
48629;SDS011;34426;52.180;4.462;2022-10-15T01:21:38;37.58;;;25.33;;
48629;SDS011;34426;52.180;4.462;2022-10-15T01:24:33;35.75;;;25.83;;
48629;SDS011;34426;52.180;4.462;2022-10-15T01:32:45;44.90;;;27.55;;
48629;SDS011;34426;52.180;4.462;2022-10-15T01:35:14;42.38;;;28.55;;
48629;SDS011;34426;52.180;4.462;2022-10-15T01:37:45;43.00;;;28.27;;
48629;SDS011;34426;52.180;4.462;2022-10-15T01:40:14;46.33;;;28.45;;
48629;SDS011;34426;52.180;4.462;2022-10-15T01:42:43;41.50;;;28.35;;
48629;SDS011;34426;52.180;4.462;2022-10-15T01:45:11;45.47;;;28.48;;
48629;SDS011;34426;52.180;4.462;2022-10-15T01:47:40;42.88;;;27.98;;
48629;SDS011;34426;52.180;4.462;2022-10-15T01:50:10;42.67;;;28.83;;
48629;SDS011;34426;52.180;4.462;2022-10-15T01:52:37;44.83;;;31.50;;
48629;SDS011;34426;52.180;4.462;2022-10-15T01:55:05;39.97;;;28.73;;
48629;SDS011;34426;52.180;4.462;2022-10-15T01:57:33;48.83;;;31.35;;
48629;SDS011;34426;52.180;4.462;2022-10-15T02:00:00;48.42;;;31.30;;
48629;SDS011;34426;52.180;4.462;2022-10-15T02:02:26;50.47;;;33.33;;
48629;SDS011;34426;52.180;4.462;2022-10-15T02:04:52;62.28;;;35.70;;
48629;SDS011;34426;52.180;4.462;2022-10-15T02:07:22;48.50;;;33.08;;
48629;SDS011;34426;52.180;4.462;2022-10-15T02:09:53;52.88;;;35.83;;
48629;SDS011;34426;52.180;4.462;2022-10-15T02:12:26;52.58;;;35.00;;
48629;SDS011;34426;52.180;4.462;2022-10-15T02:14:59;49.88;;;35.67;;
48629;SDS011;34426;52.180;4.462;2022-10-15T02:17:29;53.63;;;37.08;;
48629;SDS011;34426;52.180;4.462;2022-10-15T02:19:57;58.60;;;35.63;;
48629;SDS011;34426;52.180;4.462;2022-10-15T02:22:27;56.70;;;38.25;;
48629;SDS011;34426;52.180;4.462;2022-10-15T02:27:22;65.82;;;40.55;;
48629;SDS011;34426;52.180;4.462;2022-10-15T02:29:49;60.38;;;40.15;;
48629;SDS011;34426;52.180;4.462;2022-10-15T02:32:15;57.03;;;39.17;;
48629;SDS011;34426;52.180;4.462;2022-10-15T02:34:44;62.95;;;39.75;;
48629;SDS011;34426;52.180;4.462;2022-10-15T02:37:10;59.75;;;39.63;;
48629;SDS011;34426;52.180;4.462;2022-10-15T02:39:39;59.33;;;40.83;;
48629;SDS011;34426;52.180;4.462;2022-10-15T02:42:05;55.35;;;39.53;;
48629;SDS011;34426;52.180;4.462;2022-10-15T02:44:31;66.55;;;40.90;;
48629;SDS011;34426;52.180;4.462;2022-10-15T02:46:57;59.60;;;41.58;;
48629;SDS011;34426;52.180;4.462;2022-10-15T02:49:24;57.83;;;40.97;;
48629;SDS011;34426;52.180;4.462;2022-10-15T02:51:50;60.40;;;39.50;;
48629;SDS011;34426;52.180;4.462;2022-10-15T02:54:16;60.40;;;42.05;;
48629;SDS011;34426;52.180;4.462;2022-10-15T02:56:45;55.00;;;39.15;;
48629;SDS011;34426;52.180;4.462;2022-10-15T02:59:11;60.85;;;39.97;;
48629;SDS011;34426;52.180;4.462;2022-10-15T03:01:38;55.22;;;39.40;;
48629;SDS011;34426;52.180;4.462;2022-10-15T03:04:04;57.78;;;41.45;;
48629;SDS011;34426;52.180;4.462;2022-10-15T03:06:30;60.67;;;40.15;;
48629;SDS011;34426;52.180;4.462;2022-10-15T03:08:56;60.22;;;41.40;;
48629;SDS011;34426;52.180;4.462;2022-10-15T03:11:22;59.83;;;39.30;;
48629;SDS011;34426;52.180;4.462;2022-10-15T03:13:50;61.45;;;41.03;;
48629;SDS011;34426;52.180;4.462;2022-10-15T03:16:17;55.13;;;40.35;;
48629;SDS011;34426;52.180;4.462;2022-10-15T03:18:43;63.90;;;41.90;;
48629;SDS011;34426;52.180;4.462;2022-10-15T03:21:09;56.67;;;40.33;;
48629;SDS011;34426;52.180;4.462;2022-10-15T03:23:35;63.30;;;42.85;;
48629;SDS011;34426;52.180;4.462;2022-10-15T03:26:01;60.70;;;43.08;;
48629;SDS011;34426;52.180;4.462;2022-10-15T03:28:28;62.25;;;44.13;;
48629;SDS011;34426;52.180;4.462;2022-10-15T03:30:55;64.43;;;43.30;;
48629;SDS011;34426;52.180;4.462;2022-10-15T03:33:22;64.80;;;42.92;;
48629;SDS011;34426;52.180;4.462;2022-10-15T03:35:48;66.22;;;44.97;;
48629;SDS011;34426;52.180;4.462;2022-10-15T03:38:14;67.65;;;44.72;;
48629;SDS011;34426;52.180;4.462;2022-10-15T03:40:41;62.03;;;44.22;;
48629;SDS011;34426;52.180;4.462;2022-10-15T03:43:08;66.15;;;43.88;;
48629;SDS011;34426;52.180;4.462;2022-10-15T03:45:34;64.82;;;43.92;;
48629;SDS011;34426;52.180;4.462;2022-10-15T03:48:02;67.82;;;44.38;;
48629;SDS011;34426;52.180;4.462;2022-10-15T03:50:28;63.08;;;43.30;;
48629;SDS011;34426;52.180;4.462;2022-10-15T03:52:54;66.97;;;44.80;;
48629;SDS011;34426;52.180;4.462;2022-10-15T03:55:20;61.38;;;44.47;;
48629;SDS011;34426;52.180;4.462;2022-10-15T03:57:46;65.88;;;44.22;;
48629;SDS011;34426;52.180;4.462;2022-10-15T04:00:13;60.95;;;41.70;;
48629;SDS011;34426;52.180;4.462;2022-10-15T04:02:39;67.65;;;43.60;;
48629;SDS011;34426;52.180;4.462;2022-10-15T04:05:07;69.53;;;45.38;;
48629;SDS011;34426;52.180;4.462;2022-10-15T04:07:34;65.88;;;44.25;;
48629;SDS011;34426;52.180;4.462;2022-10-15T04:10:00;63.85;;;43.42;;
48629;SDS011;34426;52.180;4.462;2022-10-15T04:12:26;63.53;;;44.63;;
48629;SDS011;34426;52.180;4.462;2022-10-15T04:14:52;66.95;;;43.67;;
48629;SDS011;34426;52.180;4.462;2022-10-15T04:17:18;64.40;;;42.88;;
48629;SDS011;34426;52.180;4.462;2022-10-15T04:19:44;59.08;;;41.35;;
48629;SDS011;34426;52.180;4.462;2022-10-15T04:22:12;77.15;;;44.22;;
48629;SDS011;34426;52.180;4.462;2022-10-15T04:24:39;73.05;;;45.25;;
48629;SDS011;34426;52.180;4.462;2022-10-15T04:27:05;64.28;;;42.65;;
48629;SDS011;34426;52.180;4.462;2022-10-15T04:29:31;65.68;;;45.38;;
48629;SDS011;34426;52.180;4.462;2022-10-15T04:32:00;70.43;;;46.67;;
48629;SDS011;34426;52.180;4.462;2022-10-15T04:34:26;75.00;;;46.72;;
48629;SDS011;34426;52.180;4.462;2022-10-15T04:36:52;65.63;;;45.40;;
48629;SDS011;34426;52.180;4.462;2022-10-15T04:39:20;66.43;;;46.42;;
48629;SDS011;34426;52.180;4.462;2022-10-15T04:41:46;64.05;;;46.67;;
48629;SDS011;34426;52.180;4.462;2022-10-15T04:44:12;68.10;;;45.53;;
48629;SDS011;34426;52.180;4.462;2022-10-15T04:46:38;70.57;;;45.47;;
48629;SDS011;34426;52.180;4.462;2022-10-15T04:49:05;68.20;;;47.33;;
48629;SDS011;34426;52.180;4.462;2022-10-15T04:51:31;65.00;;;46.08;;
48629;SDS011;34426;52.180;4.462;2022-10-15T04:53:57;68.07;;;46.72;;
48629;SDS011;34426;52.180;4.462;2022-10-15T04:56:25;61.33;;;44.70;;
48629;SDS011;34426;52.180;4.462;2022-10-15T04:58:51;67.55;;;46.63;;
48629;SDS011;34426;52.180;4.462;2022-10-15T05:01:18;79.60;;;47.97;;
48629;SDS011;34426;52.180;4.462;2022-10-15T05:03:44;73.07;;;47.28;;
48629;SDS011;34426;52.180;4.462;2022-10-15T05:06:12;75.70;;;47.67;;
48629;SDS011;34426;52.180;4.462;2022-10-15T05:08:38;66.82;;;47.30;;
48629;SDS011;34426;52.180;4.462;2022-10-15T05:11:05;66.28;;;47.83;;
48629;SDS011;34426;52.180;4.462;2022-10-15T05:13:33;63.47;;;46.03;;
48629;SDS011;34426;52.180;4.462;2022-10-15T05:16:07;63.90;;;46.92;;
48629;SDS011;34426;52.180;4.462;2022-10-15T05:18:34;64.45;;;48.08;;
48629;SDS011;34426;52.180;4.462;2022-10-15T05:21:00;64.00;;;45.88;;
48629;SDS011;34426;52.180;4.462;2022-10-15T05:23:26;60.45;;;44.30;;
48629;SDS011;34426;52.180;4.462;2022-10-15T05:25:53;61.13;;;46.08;;
48629;SDS011;34426;52.180;4.462;2022-10-15T05:28:19;60.40;;;46.85;;
48629;SDS011;34426;52.180;4.462;2022-10-15T05:30:47;61.85;;;45.63;;
48629;SDS011;34426;52.180;4.462;2022-10-15T05:33:13;57.30;;;44.60;;
48629;SDS011;34426;52.180;4.462;2022-10-15T05:35:40;59.03;;;45.60;;
48629;SDS011;34426;52.180;4.462;2022-10-15T05:38:06;61.97;;;46.78;;
48629;SDS011;34426;52.180;4.462;2022-10-15T05:40:32;64.75;;;47.50;;
48629;SDS011;34426;52.180;4.462;2022-10-15T05:42:59;72.53;;;49.13;;
48629;SDS011;34426;52.180;4.462;2022-10-15T05:45:25;60.75;;;46.83;;
48629;SDS011;34426;52.180;4.462;2022-10-15T05:47:54;61.40;;;47.67;;
48629;SDS011;34426;52.180;4.462;2022-10-15T05:50:21;62.00;;;47.95;;
48629;SDS011;34426;52.180;4.462;2022-10-15T05:52:48;65.65;;;47.08;;
48629;SDS011;34426;52.180;4.462;2022-10-15T05:55:14;68.90;;;48.58;;
48629;SDS011;34426;52.180;4.462;2022-10-15T05:57:41;65.55;;;48.80;;
48629;SDS011;34426;52.180;4.462;2022-10-15T06:00:07;66.13;;;49.35;;
48629;SDS011;34426;52.180;4.462;2022-10-15T06:02:34;64.28;;;48.17;;
48629;SDS011;34426;52.180;4.462;2022-10-15T06:05:02;68.20;;;48.85;;
48629;SDS011;34426;52.180;4.462;2022-10-15T06:07:28;65.43;;;48.42;;
48629;SDS011;34426;52.180;4.462;2022-10-15T06:09:54;72.53;;;51.63;;
48629;SDS011;34426;52.180;4.462;2022-10-15T06:12:20;68.95;;;50.38;;
48629;SDS011;34426;52.180;4.462;2022-10-15T06:14:47;75.07;;;52.40;;
48629;SDS011;34426;52.180;4.462;2022-10-15T06:17:13;78.53;;;55.53;;
48629;SDS011;34426;52.180;4.462;2022-10-15T06:19:39;78.18;;;55.30;;
48629;SDS011;34426;52.180;4.462;2022-10-15T06:22:07;82.53;;;55.45;;
48629;SDS011;34426;52.180;4.462;2022-10-15T06:24:34;79.85;;;55.97;;
48629;SDS011;34426;52.180;4.462;2022-10-15T06:27:00;80.70;;;54.78;;
48629;SDS011;34426;52.180;4.462;2022-10-15T06:29:26;77.32;;;53.38;;
48629;SDS011;34426;52.180;4.462;2022-10-15T06:31:52;77.50;;;53.03;;
48629;SDS011;34426;52.180;4.462;2022-10-15T06:34:19;72.63;;;52.55;;
48629;SDS011;34426;52.180;4.462;2022-10-15T06:36:45;70.43;;;51.83;;
48629;SDS011;34426;52.180;4.462;2022-10-15T06:39:13;68.35;;;52.20;;
48629;SDS011;34426;52.180;4.462;2022-10-15T06:41:39;71.28;;;50.92;;
48629;SDS011;34426;52.180;4.462;2022-10-15T06:44:06;69.10;;;49.80;;
48629;SDS011;34426;52.180;4.462;2022-10-15T06:46:32;63.72;;;49.05;;
48629;SDS011;34426;52.180;4.462;2022-10-15T06:48:58;61.72;;;48.78;;
48629;SDS011;34426;52.180;4.462;2022-10-15T06:51:24;64.45;;;51.28;;
48629;SDS011;34426;52.180;4.462;2022-10-15T06:53:50;64.38;;;49.25;;
48629;SDS011;34426;52.180;4.462;2022-10-15T06:56:18;64.03;;;48.65;;
48629;SDS011;34426;52.180;4.462;2022-10-15T06:58:44;56.75;;;45.15;;
48629;SDS011;34426;52.180;4.462;2022-10-15T07:01:10;54.90;;;44.47;;
48629;SDS011;34426;52.180;4.462;2022-10-15T07:03:37;56.00;;;43.95;;
48629;SDS011;34426;52.180;4.462;2022-10-15T07:06:03;58.85;;;43.83;;
48629;SDS011;34426;52.180;4.462;2022-10-15T07:08:30;54.42;;;41.97;;
48629;SDS011;34426;52.180;4.462;2022-10-15T07:10:56;50.03;;;38.92;;
48629;SDS011;34426;52.180;4.462;2022-10-15T07:13:24;51.00;;;38.65;;
48629;SDS011;34426;52.180;4.462;2022-10-15T07:15:50;49.20;;;38.60;;
48629;SDS011;34426;52.180;4.462;2022-10-15T07:18:16;44.83;;;36.92;;
48629;SDS011;34426;52.180;4.462;2022-10-15T07:20:43;44.47;;;35.45;;
48629;SDS011;34426;52.180;4.462;2022-10-15T07:23:09;42.90;;;34.80;;
48629;SDS011;34426;52.180;4.462;2022-10-15T07:25:35;47.33;;;36.72;;
48629;SDS011;34426;52.180;4.462;2022-10-15T07:28:01;48.70;;;38.15;;
48629;SDS011;34426;52.180;4.462;2022-10-15T07:30:29;48.65;;;36.90;;
48629;SDS011;34426;52.180;4.462;2022-10-15T07:32:55;50.38;;;38.65;;
48629;SDS011;34426;52.180;4.462;2022-10-15T07:35:22;49.92;;;40.38;;
48629;SDS011;34426;52.180;4.462;2022-10-15T07:37:48;51.13;;;41.78;;
48629;SDS011;34426;52.180;4.462;2022-10-15T07:40:14;54.88;;;41.70;;
48629;SDS011;34426;52.180;4.462;2022-10-15T07:42:40;62.58;;;44.50;;
48629;SDS011;34426;52.180;4.462;2022-10-15T07:45:07;61.50;;;45.90;;
48629;SDS011;34426;52.180;4.462;2022-10-15T07:47:35;65.38;;;46.78;;
48629;SDS011;34426;52.180;4.462;2022-10-15T07:50:04;63.17;;;45.97;;
48629;SDS011;34426;52.180;4.462;2022-10-15T07:52:30;66.43;;;46.30;;
48629;SDS011;34426;52.180;4.462;2022-10-15T07:54:56;70.10;;;47.83;;
48629;SDS011;34426;52.180;4.462;2022-10-15T07:57:23;66.13;;;46.55;;
48629;SDS011;34426;52.180;4.462;2022-10-15T07:59:49;63.58;;;46.60;;
48629;SDS011;34426;52.180;4.462;2022-10-15T08:02:15;61.97;;;46.85;;
48629;SDS011;34426;52.180;4.462;2022-10-15T08:04:43;61.63;;;46.28;;
48629;SDS011;34426;52.180;4.462;2022-10-15T08:07:09;58.80;;;42.30;;
48629;SDS011;34426;52.180;4.462;2022-10-15T08:09:36;54.50;;;41.15;;
48629;SDS011;34426;52.180;4.462;2022-10-15T08:12:02;48.60;;;38.22;;
48629;SDS011;34426;52.180;4.462;2022-10-15T08:14:28;48.03;;;38.05;;
48629;SDS011;34426;52.180;4.462;2022-10-15T08:16:54;44.25;;;34.30;;
48629;SDS011;34426;52.180;4.462;2022-10-15T08:19:20;42.95;;;33.63;;
48629;SDS011;34426;52.180;4.462;2022-10-15T08:21:49;43.83;;;31.98;;
48629;SDS011;34426;52.180;4.462;2022-10-15T08:24:15;43.92;;;32.03;;
48629;SDS011;34426;52.180;4.462;2022-10-15T08:26:41;38.30;;;31.40;;
48629;SDS011;34426;52.180;4.462;2022-10-15T08:29:08;41.78;;;32.13;;
48629;SDS011;34426;52.180;4.462;2022-10-15T08:31:34;41.17;;;32.60;;
48629;SDS011;34426;52.180;4.462;2022-10-15T08:34:01;46.72;;;29.90;;
48629;SDS011;34426;52.180;4.462;2022-10-15T08:36:27;42.03;;;31.83;;
48629;SDS011;34426;52.180;4.462;2022-10-15T08:38:55;38.85;;;30.52;;
48629;SDS011;34426;52.180;4.462;2022-10-15T08:41:23;41.13;;;31.58;;
48629;SDS011;34426;52.180;4.462;2022-10-15T08:43:50;45.35;;;33.58;;
48629;SDS011;34426;52.180;4.462;2022-10-15T08:46:17;45.65;;;33.35;;
48629;SDS011;34426;52.180;4.462;2022-10-15T08:48:46;51.08;;;34.08;;
48629;SDS011;34426;52.180;4.462;2022-10-15T08:51:13;52.55;;;34.63;;
48629;SDS011;34426;52.180;4.462;2022-10-15T08:53:42;51.03;;;35.42;;
48629;SDS011;34426;52.180;4.462;2022-10-15T08:56:14;49.90;;;35.05;;
48629;SDS011;34426;52.180;4.462;2022-10-15T08:58:44;50.65;;;34.63;;
48629;SDS011;34426;52.180;4.462;2022-10-15T09:01:12;51.97;;;36.20;;
48629;SDS011;34426;52.180;4.462;2022-10-15T09:03:40;49.00;;;35.45;;
48629;SDS011;34426;52.180;4.462;2022-10-15T09:06:11;47.40;;;34.42;;
48629;SDS011;34426;52.180;4.462;2022-10-15T09:08:42;48.42;;;34.85;;
48629;SDS011;34426;52.180;4.462;2022-10-15T09:11:15;53.20;;;36.65;;
48629;SDS011;34426;52.180;4.462;2022-10-15T09:13:43;52.65;;;38.10;;
48629;SDS011;34426;52.180;4.462;2022-10-15T09:16:12;52.97;;;36.38;;
48629;SDS011;34426;52.180;4.462;2022-10-15T09:18:40;51.40;;;37.40;;
48629;SDS011;34426;52.180;4.462;2022-10-15T09:21:06;48.55;;;36.85;;
48629;SDS011;34426;52.180;4.462;2022-10-15T09:23:34;50.40;;;36.83;;
48629;SDS011;34426;52.180;4.462;2022-10-15T09:26:02;47.25;;;36.10;;
48629;SDS011;34426;52.180;4.462;2022-10-15T09:28:34;47.75;;;35.67;;
48629;SDS011;34426;52.180;4.462;2022-10-15T09:31:03;43.97;;;34.28;;
48629;SDS011;34426;52.180;4.462;2022-10-15T09:33:32;44.60;;;33.30;;
48629;SDS011;34426;52.180;4.462;2022-10-15T09:36:02;41.47;;;32.63;;
48629;SDS011;34426;52.180;4.462;2022-10-15T09:38:33;34.30;;;30.70;;
48629;SDS011;34426;52.180;4.462;2022-10-15T09:41:06;33.85;;;29.02;;
48629;SDS011;34426;52.180;4.462;2022-10-15T09:43:38;36.85;;;30.42;;
48629;SDS011;34426;52.180;4.462;2022-10-15T09:46:05;33.85;;;30.17;;
48629;SDS011;34426;52.180;4.462;2022-10-15T09:48:32;34.90;;;30.10;;
48629;SDS011;34426;52.180;4.462;2022-10-15T09:51:03;33.97;;;29.13;;
48629;SDS011;34426;52.180;4.462;2022-10-15T09:53:34;33.83;;;29.88;;
48629;SDS011;34426;52.180;4.462;2022-10-15T09:56:04;31.92;;;28.60;;
48629;SDS011;34426;52.180;4.462;2022-10-15T09:58:35;32.03;;;28.52;;
48629;SDS011;34426;52.180;4.462;2022-10-15T10:01:05;31.83;;;28.45;;
48629;SDS011;34426;52.180;4.462;2022-10-15T10:03:32;29.63;;;26.45;;
48629;SDS011;34426;52.180;4.462;2022-10-15T10:05:59;30.73;;;27.45;;
48629;SDS011;34426;52.180;4.462;2022-10-15T10:08:26;28.30;;;25.25;;
48629;SDS011;34426;52.180;4.462;2022-10-15T10:10:54;27.85;;;24.92;;
48629;SDS011;34426;52.180;4.462;2022-10-15T10:13:21;27.95;;;25.05;;
48629;SDS011;34426;52.180;4.462;2022-10-15T10:15:48;24.55;;;21.95;;
48629;SDS011;34426;52.180;4.462;2022-10-15T10:18:19;25.05;;;22.08;;
48629;SDS011;34426;52.180;4.462;2022-10-15T10:20:55;22.00;;;19.80;;
48629;SDS011;34426;52.180;4.462;2022-10-15T10:23:22;21.52;;;19.42;;
48629;SDS011;34426;52.180;4.462;2022-10-15T10:25:48;19.98;;;18.13;;
48629;SDS011;34426;52.180;4.462;2022-10-15T10:28:16;22.58;;;19.50;;
48629;SDS011;34426;52.180;4.462;2022-10-15T10:30:47;20.77;;;18.75;;
48629;SDS011;34426;52.180;4.462;2022-10-15T10:33:14;17.83;;;16.10;;
48629;SDS011;34426;52.180;4.462;2022-10-15T10:35:47;18.38;;;16.38;;
48629;SDS011;34426;52.180;4.462;2022-10-15T10:38:19;17.25;;;15.55;;
48629;SDS011;34426;52.180;4.462;2022-10-15T10:40:49;16.58;;;14.82;;
48629;SDS011;34426;52.180;4.462;2022-10-15T10:43:17;15.57;;;13.82;;
48629;SDS011;34426;52.180;4.462;2022-10-15T10:45:51;14.40;;;12.90;;
48629;SDS011;34426;52.180;4.462;2022-10-15T10:48:17;11.63;;;10.52;;
48629;SDS011;34426;52.180;4.462;2022-10-15T10:50:44;11.68;;;10.57;;
48629;SDS011;34426;52.180;4.462;2022-10-15T10:53:18;15.93;;;10.10;;
48629;SDS011;34426;52.180;4.462;2022-10-15T10:55:45;9.25;;;8.23;;
48629;SDS011;34426;52.180;4.462;2022-10-15T10:58:14;8.23;;;7.53;;
48629;SDS011;34426;52.180;4.462;2022-10-15T11:00:43;8.63;;;7.72;;
48629;SDS011;34426;52.180;4.462;2022-10-15T11:03:12;7.65;;;6.95;;
48629;SDS011;34426;52.180;4.462;2022-10-15T11:05:42;7.35;;;6.65;;
48629;SDS011;34426;52.180;4.462;2022-10-15T11:08:10;6.65;;;6.05;;
48629;SDS011;34426;52.180;4.462;2022-10-15T11:10:42;6.35;;;5.75;;
48629;SDS011;34426;52.180;4.462;2022-10-15T11:13:23;6.32;;;5.72;;
48629;SDS011;34426;52.180;4.462;2022-10-15T11:15:53;7.18;;;5.38;;
48629;SDS011;34426;52.180;4.462;2022-10-15T11:18:26;6.22;;;5.57;;
48629;SDS011;34426;52.180;4.462;2022-10-15T11:23:21;4.63;;;4.25;;
48629;SDS011;34426;52.180;4.462;2022-10-15T11:25:51;6.10;;;4.40;;
48629;SDS011;34426;52.180;4.462;2022-10-15T11:28:22;5.15;;;4.65;;
48629;SDS011;34426;52.180;4.462;2022-10-15T11:30:50;4.15;;;3.78;;
48629;SDS011;34426;52.180;4.462;2022-10-15T11:33:24;4.20;;;3.88;;
48629;SDS011;34426;52.180;4.462;2022-10-15T11:35:54;4.13;;;3.72;;
48629;SDS011;34426;52.180;4.462;2022-10-15T11:38:28;4.40;;;3.97;;
48629;SDS011;34426;52.180;4.462;2022-10-15T11:41:06;6.28;;;4.22;;
48629;SDS011;34426;52.180;4.462;2022-10-15T11:43:41;6.78;;;3.80;;
48629;SDS011;34426;52.180;4.462;2022-10-15T11:46:12;4.35;;;3.80;;
48629;SDS011;34426;52.180;4.462;2022-10-15T11:48:42;4.22;;;3.92;;
48629;SDS011;34426;52.180;4.462;2022-10-15T11:51:15;4.30;;;3.97;;
48629;SDS011;34426;52.180;4.462;2022-10-15T11:53:55;5.47;;;4.97;;
48629;SDS011;34426;52.180;4.462;2022-10-15T11:56:26;5.55;;;4.50;;
48629;SDS011;34426;52.180;4.462;2022-10-15T11:58:55;5.63;;;5.10;;
48629;SDS011;34426;52.180;4.462;2022-10-15T12:01:24;5.30;;;4.80;;
48629;SDS011;34426;52.180;4.462;2022-10-15T12:03:52;5.25;;;4.80;;
48629;SDS011;34426;52.180;4.462;2022-10-15T12:06:20;4.75;;;4.35;;
48629;SDS011;34426;52.180;4.462;2022-10-15T12:08:49;5.05;;;4.55;;
48629;SDS011;34426;52.180;4.462;2022-10-15T12:11:20;5.30;;;4.80;;
48629;SDS011;34426;52.180;4.462;2022-10-15T12:13:52;5.03;;;4.63;;
48629;SDS011;34426;52.180;4.462;2022-10-15T12:16:21;5.85;;;5.25;;
48629;SDS011;34426;52.180;4.462;2022-10-15T12:18:51;5.65;;;5.05;;
48629;SDS011;34426;52.180;4.462;2022-10-15T12:21:37;5.40;;;4.90;;
48629;SDS011;34426;52.180;4.462;2022-10-15T12:24:05;4.78;;;4.38;;
48629;SDS011;34426;52.180;4.462;2022-10-15T12:26:33;6.70;;;5.15;;
48629;SDS011;34426;52.180;4.462;2022-10-15T12:29:02;4.47;;;4.07;;
48629;SDS011;34426;52.180;4.462;2022-10-15T12:31:45;4.97;;;4.18;;
48629;SDS011;34426;52.180;4.462;2022-10-15T12:34:25;4.45;;;4.05;;
48629;SDS011;34426;52.180;4.462;2022-10-15T12:36:58;6.70;;;3.63;;
48629;SDS011;34426;52.180;4.462;2022-10-15T12:39:24;4.50;;;3.60;;
48629;SDS011;34426;52.180;4.462;2022-10-15T12:41:50;3.53;;;3.22;;
48629;SDS011;34426;52.180;4.462;2022-10-15T12:44:19;2.42;;;2.22;;
48629;SDS011;34426;52.180;4.462;2022-10-15T12:46:45;5.00;;;1.90;;
48629;SDS011;34426;52.180;4.462;2022-10-15T12:51:56;2.00;;;1.25;;
48629;SDS011;34426;52.180;4.462;2022-10-15T12:54:32;1.85;;;1.17;;
48629;SDS011;34426;52.180;4.462;2022-10-15T12:56:59;3.53;;;1.15;;
48629;SDS011;34426;52.180;4.462;2022-10-15T12:59:51;2.30;;;1.20;;
48629;SDS011;34426;52.180;4.462;2022-10-15T13:02:33;6.28;;;1.50;;
48629;SDS011;34426;52.180;4.462;2022-10-15T13:05:00;4.70;;;0.90;;
48629;SDS011;34426;52.180;4.462;2022-10-15T13:07:26;6.60;;;1.00;;
48629;SDS011;34426;52.180;4.462;2022-10-15T13:09:52;6.68;;;1.13;;
48629;SDS011;34426;52.180;4.462;2022-10-15T13:12:20;5.57;;;1.30;;
48629;SDS011;34426;52.180;4.462;2022-10-15T13:14:48;3.35;;;0.68;;
48629;SDS011;34426;52.180;4.462;2022-10-15T13:17:18;5.28;;;0.88;;
48629;SDS011;34426;52.180;4.462;2022-10-15T13:19:51;6.15;;;0.70;;
48629;SDS011;34426;52.180;4.462;2022-10-15T13:24:43;4.47;;;0.40;;
48629;SDS011;34426;52.180;4.462;2022-10-15T13:27:13;6.45;;;1.05;;
48629;SDS011;34426;52.180;4.462;2022-10-15T13:29:51;5.72;;;1.00;;
48629;SDS011;34426;52.180;4.462;2022-10-15T13:32:19;6.65;;;1.40;;
48629;SDS011;34426;52.180;4.462;2022-10-15T13:34:45;3.47;;;0.70;;
48629;SDS011;34426;52.180;4.462;2022-10-15T13:37:12;8.57;;;1.10;;
48629;SDS011;34426;52.180;4.462;2022-10-15T13:39:40;5.55;;;1.00;;
48629;SDS011;34426;52.180;4.462;2022-10-15T13:42:08;3.67;;;0.90;;
48629;SDS011;34426;52.180;4.462;2022-10-15T13:44:35;9.60;;;1.80;;
48629;SDS011;34426;52.180;4.462;2022-10-15T13:47:01;14.57;;;2.22;;
48629;SDS011;34426;52.180;4.462;2022-10-15T13:49:29;9.25;;;1.45;;
48629;SDS011;34426;52.180;4.462;2022-10-15T13:51:55;7.68;;;1.40;;
48629;SDS011;34426;52.180;4.462;2022-10-15T13:54:22;13.15;;;1.60;;
48629;SDS011;34426;52.180;4.462;2022-10-15T13:56:50;12.90;;;1.77;;
48629;SDS011;34426;52.180;4.462;2022-10-15T13:59:17;12.60;;;2.05;;
48629;SDS011;34426;52.180;4.462;2022-10-15T14:01:47;12.63;;;1.58;;
48629;SDS011;34426;52.180;4.462;2022-10-15T14:04:14;13.10;;;1.75;;
48629;SDS011;34426;52.180;4.462;2022-10-15T14:06:47;10.55;;;1.63;;
48629;SDS011;34426;52.180;4.462;2022-10-15T14:09:18;5.97;;;1.23;;
48629;SDS011;34426;52.180;4.462;2022-10-15T14:11:44;6.15;;;1.48;;
48629;SDS011;34426;52.180;4.462;2022-10-15T14:16:51;12.88;;;1.58;;
48629;SDS011;34426;52.180;4.462;2022-10-15T14:19:17;10.48;;;1.20;;
48629;SDS011;34426;52.180;4.462;2022-10-15T14:21:45;6.35;;;1.60;;
48629;SDS011;34426;52.180;4.462;2022-10-15T14:24:13;6.05;;;1.48;;
48629;SDS011;34426;52.180;4.462;2022-10-15T14:26:39;8.38;;;1.50;;
48629;SDS011;34426;52.180;4.462;2022-10-15T14:29:12;6.03;;;1.10;;
48629;SDS011;34426;52.180;4.462;2022-10-15T14:31:43;5.90;;;1.30;;
48629;SDS011;34426;52.180;4.462;2022-10-15T14:34:29;10.93;;;1.50;;
48629;SDS011;34426;52.180;4.462;2022-10-15T14:36:58;7.82;;;1.35;;
48629;SDS011;34426;52.180;4.462;2022-10-15T14:39:28;10.88;;;1.60;;
48629;SDS011;34426;52.180;4.462;2022-10-15T14:41:58;5.18;;;1.40;;
48629;SDS011;34426;52.180;4.462;2022-10-15T14:44:25;8.88;;;1.33;;
48629;SDS011;34426;52.180;4.462;2022-10-15T14:46:51;9.73;;;1.50;;
48629;SDS011;34426;52.180;4.462;2022-10-15T14:51:55;9.52;;;1.90;;
48629;SDS011;34426;52.180;4.462;2022-10-15T14:54:24;9.60;;;1.08;;
48629;SDS011;34426;52.180;4.462;2022-10-15T14:56:51;5.97;;;1.65;;